Pagrindinis puslapis
METAR-TAF:

METAR-TAF

Oro uostai :

Gibraltaras, Gibraltaras

platuma: 36-09N, ilguma: 005-21W, Aukštis: 5 m

Dabartinis oras

Ataskaita buvo paskelbta 48 minutes, ne 21:50 UTC
Vėjas 5 kt iš Pietų/Pietvakarių
Temperatūra 22°C
Drėgmė 88%
Slėgis 1015 hPa
Matomumas 10 km arba daugiau

METAR: LXGB 202150Z AUTO 20005KT 9999 // FEW011/// BKN026/// 22/20 Q1015

Laikas: 00:38 (22:38 UTC)

Prognozė

Ataskaita buvo paskelbta 6 valandos ir 2 minutes, ne 16:36 UTC
Prognozė galioja nuo 20 metu 18 UTC su 20 metu 22 UTC
Vėjas 8 kt iš Rytų
Matomumas: 8000 m
Mažai debesys ne aukštis 400 ft
Su prošvaistėmis ne aukštis 3000 ft
migla
Tapsmas
nuo 20 metu 18 UTC su 20 metu 21 UTC
Vėjas 6 kt iš Vakarų
Laikinai
nuo 20 metu 18 UTC su 20 metu 22 UTC
Su prošvaistėmis ne aukštis 2000 ft
Tikimybė 40% :
Laikinai
nuo 20 metu 18 UTC su 20 metu 22 UTC
Matomumas: 5000 m
Išsisklaidę debesys ne aukštis 400 ft
migla

TAF: LXGB 201636Z 2018/2022 08008KT 8000 HZ FEW004 BKN030 BECMG 2018/2021 27006KT TEMPO 2018/2022 BKN020 PROB40 TEMPO 2018/2022 5000 HZ SCT004

Orai ataskaitas ir orų prognozės (METAR, TAF).

turimą stotys yra geltonos ir raudonos taškus žemėlapyje.

Perkelti pele per norėdami pamatyti stoties vardą.

Tada spustelėkite, norėdami matyti oro stebėjimo ir prognozės.

Norėdami pakeisti žemėlapį: spustelėkite ant žalios mygtukų su juodo kryžiaus žemyn,; žalią mygtuką su brūkšneliu, jei norite nutolinti; arba žalių rodyklių gretimoms žemėlapius.


METAR-TAF: